Obavijest / Notice

Poštovani korisnici,

S ciljem kontinuiranog poboljšanja usluge, u postupku je redizajn web portala. Glavne promjene se odnose na dostupnost mobilne verzije portala i reorganizaciju sadržaja radi lakšeg pristupa podacima.

Redizajnirana verzija portala bit će objavljena za par dana i nadamo se da će vam novi dizajn biti koristan i jednostavan za korištenje.

Srdačan pozdrav,

Sektor zrakoplovne meteorologije

Hrvatska kontrola zračne plovidbe d.o.o.

 

Dear users,

The web page is currently being redesigned in order to continuously improve our services. The main changes are the creation of a mobile version of the portal and the reorganisation of the portal's content.

The redesigned portal will be launched in a few days and we hope you will find the new design useful and user-friendly.

Best regards,

MET Division

Croatia Control Ltd.

METAR Croatia

METAR LDZA 301500Z 24010KT CAVOK 23/12 Q1017 NOSIG =
METAR LDSP 301500Z 22009KT CAVOK 22/14 Q1020 BECMG VRB02KT=
METAR LDDU 301500Z 26004KT 200V330 9999 FEW027 21/13 Q1021 NOSIG =
METAR LDZD 301500Z 20006KT 150V260 9999 FEW033 22/15 Q1020 NOSIG =
METAR LDPL 301500Z 21005KT 140V290 CAVOK 22/15 Q1020 BECMG 25008KT=
METAR LDOS 301500Z 21007KT CAVOK 26/08 Q1018=
METAR LDSB 301400Z 21006KT 160V250 CAVOK 20/12 Q1022=
METAR LDRI 301500Z 31003KT 180V310 9999 FEW030 SCT040 20/15 Q1020=
METAR LDLO 301400Z 21005KT 9999 SCT025 22/16 Q1020=

TAF Croatia

TAF LDZA 301125Z 3012/0112 23008KT 9999 FEW040
                 TX25/3013Z TN12/0105Z
           TEMPO 3012/3017 23012KT
           TEMPO 3020/0106 23005KT=
TAF LDSP 301125Z 3012/0112 23008KT CAVOK
                 TX24/3012Z TN15/0105Z
           BECMG 3015/3017 VRB02KT=
TAF LDDU 301125Z 3012/0112 26008KT 9999 FEW035
                 TX22/3012Z TN13/0103Z
           BECMG 3018/3020 03006KT
           TEMPO 0100/0106 08008KT=
TAF LDZD 301125Z 3012/0112 24008KT 9999 FEW030
                 TX24/3012Z TN10/0105Z
           BECMG 3015/3017 VRB02KT
    PROB30 TEMPO 3021/0106 2000 BCFG
           BECMG 0107/0109 13009KT
           BECMG 0110/0112 21008KT=
TAF LDPL 301125Z 3012/0112 13008KT 9999 SCT020
                 TX23/3013Z TN13/0104Z
    PROB30 TEMPO 3012/3014 BKN012
           TEMPO 3013/3016 24008KT
           BECMG 3018/3020 VRB02KT
    PROB30 TEMPO 0100/0105 BKN010
           BECMG 0110/0112 25007KT=
TAF LDOS 301125Z 3012/0112 VRB02KT CAVOK
                 TX26/3013Z TN10/0104Z=
TAF AMD LDSB 301502Z 3015/0112 CNL=
TAF LDRI 301125Z 3012/0112 VRB02KT CAVOK
                 TX23/3012Z TN16/0105Z
    PROB30 TEMPO 0101/0108 -SHRA FEW030TCU=
TAF LDLO 301125Z 3012/0112 14010KT CAVOK
                 TX23/3013Z TN17/0105Z
           TEMPO 3012/3016 20006KT
           BECMG 0105/0107 20008KT=

SIGMET Croatia

AIRMET Croatia

LDZO AIRMET 5 VALID 301400/301800 LDZA-
LDZO ZAGREB FIR MT OBSC FCST WI N4552 E01450 - N4414 E01536 - N4437
E01459 - N4506 E01452 - N4519 E01422 - N4500 E01405 - N4528 E01358 -
N4552 E01450 ABV FL020 STNR NC=
LDZO AIRMET 6 VALID 301500/301900 LDZA-
LDZO ZAGREB FIR MOD MTW FCST WI N4627 E01613 - N4526 E01721 - N4415
E01523 - N4535 E01415 - N4627 E01613 ABV FL030 STNR NC=

Ukoliko se brzina i smjer vjetra ne mogu odrediti zbog privremenog kvara sustava/indikatora, 
informacija o vjetru u METAR izvjescu bit ce prikazana kao "/////KT".
When the wind speed and direction cannot be determined due to temporary failure of 
system/sensor they shall be replaced in METAR report by "/////KT".